Terminal Aerodrome Forecast
Issued by NWS Wakefield, VA

Home | Current Version | Previous Version | Text Only | Print | Product List | Glossary On
Versions: 1 2 3 4 5 6 7 8 9 10 11 12 13 14 15 16 17 18
000
FTUS41 KAKQ 270300 AAB
TAFRIC
TAF AMD
KRIC 270339Z 2704/2724 35002KT 3SM BR SCT025
      TEMPO 2704/2707 1SM BR
     FM270800 00000KT P6SM SCT020 OVC050
     FM271800 01007KT P6SM BKN012 BKN030=

USA.gov is the U.S. government's official web portal to all federal, state and local government web resources and services.